createdAt,value
2019-03-28T00:01:50.953Z,99539.33
2019-03-28T00:04:20.293Z,99537.23
2019-03-28T00:06:49.626Z,99541.20
2019-03-28T00:09:19.514Z,99540.13
2019-03-28T00:12:09.440Z,99538.95
2019-03-28T00:14:38.785Z,99538.52
2019-03-28T00:17:08.118Z,99532.88
2019-03-28T00:19:37.454Z,99537.02
2019-03-28T00:22:06.803Z,99529.09
2019-03-28T00:27:31.599Z,99531.68
2019-03-28T00:30:00.934Z,99529.01
2019-03-28T00:32:30.285Z,99531.73
2019-03-28T00:35:00.229Z,99526.86
2019-03-28T00:37:50.262Z,99529.79
2019-03-28T00:40:19.607Z,99530.30
2019-03-28T00:42:48.924Z,99525.28
2019-03-28T00:45:24.191Z,99527.64
2019-03-28T00:47:53.532Z,99527.09
2019-03-28T00:50:41.982Z,99533.55
2019-03-28T00:53:12.948Z,99529.95
2019-03-28T00:55:42.297Z,99526.38
2019-03-28T00:58:11.635Z,99524.41
2019-03-28T01:00:40.976Z,99525.96
2019-03-28T01:03:11.173Z,99529.67
2019-03-28T01:06:00.512Z,99530.53
2019-03-28T01:08:29.855Z,99525.14
2019-03-28T01:10:59.193Z,99525.14
2019-03-28T01:13:28.543Z,99519.70
2019-03-28T01:15:57.882Z,99525.86
2019-03-28T01:18:27.222Z,99519.56
2019-03-28T01:20:56.567Z,99523.44
2019-03-28T01:23:25.908Z,99518.78
2019-03-28T01:26:07.953Z,99517.92
2019-03-28T01:28:37.284Z,99513.52
2019-03-28T01:31:06.620Z,99516.24
2019-03-28T01:33:35.964Z,99512.56
2019-03-28T01:36:05.299Z,99512.67
2019-03-28T01:38:46.479Z,99519.68
2019-03-28T01:41:16.248Z,99516.39
2019-03-28T01:43:56.342Z,99515.59
2019-03-28T01:46:31.395Z,99516.36
2019-03-28T01:49:03.593Z,99510.78
2019-03-28T01:51:50.877Z,99508.47
2019-03-28T01:54:20.225Z,99503.41
2019-03-28T01:56:49.563Z,99504.13
2019-03-28T01:59:18.903Z,99507.63
2019-03-28T02:01:48.247Z,99510.20
2019-03-28T02:04:17.581Z,99507.78
2019-03-28T02:07:06.018Z,99505.77
2019-03-28T02:09:35.353Z,99510.66
2019-03-28T02:12:05.289Z,99506.53
2019-03-28T02:14:40.855Z,99510.91
2019-03-28T02:17:10.190Z,99508.67
2019-03-28T02:19:39.546Z,99499.66
2019-03-28T02:22:08.878Z,99499.47
2019-03-28T02:24:38.214Z,99498.91
2019-03-28T02:27:07.558Z,99511.27
2019-03-28T02:29:36.886Z,99511.86
2019-03-28T02:32:06.238Z,99512.04
2019-03-28T02:34:35.572Z,99511.19
2019-03-28T02:37:05.192Z,99514.08
2019-03-28T02:39:34.515Z,99514.40
2019-03-28T02:42:03.843Z,99510.20
2019-03-28T02:44:33.194Z,99505.46
2019-03-28T02:47:02.539Z,99514.82
2019-03-28T02:49:31.875Z,99512.93
2019-03-28T02:52:01.488Z,99513.80
2019-03-28T02:54:32.459Z,99510.25
2019-03-28T02:57:01.807Z,99506.89
2019-03-28T02:59:31.142Z,99509.55
2019-03-28T03:02:00.602Z,99503.91
2019-03-28T03:04:29.946Z,99504.34
2019-03-28T03:06:59.367Z,99494.66
2019-03-28T03:09:40.972Z,99494.62
2019-03-28T03:12:10.303Z,99494.83
2019-03-28T03:14:39.642Z,99496.38
2019-03-28T03:17:08.996Z,99495.81
2019-03-28T03:19:38.335Z,99501.02
2019-03-28T03:22:07.694Z,99497.00
2019-03-28T03:24:37.040Z,99495.40
2019-03-28T03:27:06.347Z,99506.13
2019-03-28T03:29:35.768Z,99504.52
2019-03-28T03:32:05.106Z,99497.87
2019-03-28T03:34:34.455Z,99506.96
2019-03-28T03:37:04.195Z,99502.73
2019-03-28T03:39:40.409Z,99509.38
2019-03-28T03:42:09.884Z,99506.78
2019-03-28T03:44:58.317Z,99509.30
2019-03-28T03:47:32.878Z,99511.08
2019-03-28T03:50:02.229Z,99505.59
2019-03-28T03:52:31.559Z,99500.42
2019-03-28T03:55:00.897Z,99495.80
2019-03-28T03:57:30.244Z,99494.27
2019-03-28T03:59:59.582Z,99497.86
2019-03-28T04:02:28.907Z,99499.96
2019-03-28T04:04:58.242Z,99499.83
2019-03-28T04:07:27.594Z,99494.27
2019-03-28T04:09:56.932Z,99501.38
2019-03-28T04:12:26.288Z,99507.28
2019-03-28T04:14:55.608Z,99504.39
2019-03-28T04:17:25.205Z,99499.02
2019-03-28T04:19:54.573Z,99503.27
2019-03-28T04:22:24.217Z,99503.48
2019-03-28T04:24:53.561Z,99505.28
2019-03-28T04:27:22.892Z,99511.13
2019-03-28T04:29:52.230Z,99510.84
2019-03-28T04:32:21.574Z,99511.32
2019-03-28T04:34:50.904Z,99514.28
2019-03-28T04:37:20.247Z,99520.78
2019-03-28T04:39:49.595Z,99528.78
2019-03-28T04:42:18.934Z,99530.50
2019-03-28T04:44:48.268Z,99529.39
2019-03-28T04:47:17.598Z,99529.39
2019-03-28T04:49:52.479Z,99532.79
2019-03-28T04:52:21.812Z,99528.95
2019-03-28T04:54:51.146Z,99526.83
2019-03-28T04:57:20.492Z,99528.11
2019-03-28T04:59:49.829Z,99526.47
2019-03-28T05:02:19.184Z,99528.83
2019-03-28T05:04:48.509Z,99521.83
2019-03-28T05:07:17.839Z,99530.40
2019-03-28T05:09:47.178Z,99526.27
2019-03-28T05:12:16.511Z,99535.48
2019-03-28T05:14:45.858Z,99537.84
2019-03-28T05:17:15.192Z,99534.96
2019-03-28T05:19:44.534Z,99544.85
2019-03-28T05:22:13.869Z,99551.73
2019-03-28T05:24:43.227Z,99555.41
2019-03-28T05:27:18.188Z,99552.42
2019-03-28T05:29:47.531Z,99553.14
2019-03-28T05:32:16.863Z,99560.15
2019-03-28T05:34:46.203Z,99554.08
2019-03-28T05:37:15.547Z,99554.30
2019-03-28T05:39:45.336Z,99553.26
2019-03-28T05:42:21.395Z,99562.38
2019-03-28T05:44:50.729Z,99553.86
2019-03-28T05:47:22.102Z,99563.31
2019-03-28T05:49:56.514Z,99560.53
2019-03-28T05:52:31.623Z,99561.67
2019-03-28T05:55:01.037Z,99570.69
2019-03-28T05:57:30.707Z,99568.73
2019-03-28T06:00:00.434Z,99573.21
2019-03-28T06:02:30.023Z,99568.95
2019-03-28T06:04:59.371Z,99571.59
2019-03-28T06:07:28.715Z,99570.14
2019-03-28T06:09:58.058Z,99574.53
2019-03-28T06:12:27.401Z,99576.39
2019-03-28T06:14:56.735Z,99578.19
2019-03-28T06:17:26.080Z,99583.09
2019-03-28T06:19:55.416Z,99584.84
2019-03-28T06:22:30.657Z,99591.16
2019-03-28T06:24:59.989Z,99582.34
2019-03-28T06:27:29.319Z,99581.78
2019-03-28T06:30:01.804Z,99581.03
2019-03-28T06:32:48.781Z,99578.44
2019-03-28T06:35:18.403Z,99584.93
2019-03-28T06:38:08.242Z,99577.78
2019-03-28T06:40:37.602Z,99582.04
2019-03-28T06:43:06.930Z,99584.97
2019-03-28T06:45:36.262Z,99586.47
2019-03-28T06:48:05.603Z,99587.17
2019-03-28T06:50:34.936Z,99583.59
2019-03-28T06:53:04.344Z,99581.45
2019-03-28T06:55:36.767Z,99573.64
2019-03-28T06:58:14.423Z,99576.13
2019-03-28T07:00:43.760Z,99572.94
2019-03-28T07:03:13.452Z,99572.08
2019-03-28T07:05:42.790Z,99571.06
2019-03-28T07:08:12.123Z,99580.80
2019-03-28T07:10:41.753Z,99576.88
2019-03-28T07:13:11.087Z,99578.80
2019-03-28T07:15:40.430Z,99577.86
2019-03-28T07:18:09.764Z,99584.83
2019-03-28T07:20:39.094Z,99579.77
2019-03-28T07:23:08.439Z,99581.66
2019-03-28T07:25:37.773Z,99580.25
2019-03-28T07:28:07.107Z,99572.95
2019-03-28T07:30:38.107Z,99582.19
2019-03-28T07:33:07.443Z,99572.30
2019-03-28T07:35:36.802Z,99571.06
2019-03-28T07:38:06.110Z,99564.70
2019-03-28T07:40:35.670Z,99561.85
2019-03-28T07:43:06.720Z,99556.72
2019-03-28T07:45:37.682Z,99554.05
2019-03-28T07:48:08.658Z,99555.53
2019-03-28T07:50:42.416Z,99553.66
2019-03-28T07:53:19.567Z,99553.20
2019-03-28T07:56:15.908Z,99550.78
2019-03-28T07:58:46.903Z,99550.66
2019-03-28T08:01:18.308Z,99546.31
2019-03-28T08:04:12.298Z,99552.58
2019-03-28T08:06:49.671Z,99549.45
2019-03-28T08:09:19.956Z,99543.83
2019-03-28T08:11:50.915Z,99539.38
2019-03-28T08:14:21.891Z,99534.17
2019-03-28T08:16:52.851Z,99537.66
2019-03-28T08:19:23.830Z,99542.08
2019-03-28T08:21:53.157Z,99548.95
2019-03-28T08:24:22.488Z,99544.62
2019-03-28T08:26:51.820Z,99547.70
2019-03-28T08:29:21.143Z,99550.77
2019-03-28T08:35:45.359Z,99550.79
2019-03-28T08:38:26.035Z,99546.39
2019-03-28T08:40:55.683Z,99543.64
2019-03-28T08:43:25.009Z,99542.55
2019-03-28T08:46:00.530Z,99541.75
2019-03-28T08:48:29.860Z,99544.77
2019-03-28T08:50:59.223Z,99547.80
2019-03-28T08:53:28.547Z,99551.39
2019-03-28T08:55:57.875Z,99550.27
2019-03-28T08:58:48.185Z,99553.84
2019-03-28T09:01:30.640Z,99550.27
2019-03-28T09:04:21.006Z,99553.02
2019-03-28T09:06:50.291Z,99544.98
2019-03-28T09:09:32.974Z,99546.30
2019-03-28T09:12:04.294Z,99552.39
2019-03-28T09:14:35.270Z,99547.36
2019-03-28T09:17:06.237Z,99550.11
2019-03-28T09:19:38.933Z,99551.17
2019-03-28T09:22:27.362Z,99545.95
2019-03-28T09:24:58.339Z,99541.75
2019-03-28T09:27:29.303Z,99543.67
2019-03-28T09:30:48.844Z,99536.41
2019-03-28T09:33:20.612Z,99535.31
2019-03-28T09:35:51.780Z,99537.01
2019-03-28T09:38:41.786Z,99541.86
2019-03-28T09:41:12.907Z,99534.38
2019-03-28T09:43:54.670Z,99530.10
2019-03-28T09:46:20.043Z,99532.55
2019-03-28T09:48:51.012Z,99528.72
2019-03-28T09:51:22.170Z,99526.61
2019-03-28T09:53:53.132Z,99527.61
2019-03-28T09:56:24.119Z,99528.84
2019-03-28T09:58:55.085Z,99532.97
2019-03-28T10:01:26.187Z,99533.13
2019-03-28T10:03:57.158Z,99522.68
2019-03-28T10:06:28.418Z,99528.98
2019-03-28T10:08:59.513Z,99526.84
2019-03-28T10:11:30.503Z,99526.44
2019-03-28T10:14:18.925Z,99521.37
2019-03-28T10:16:49.899Z,99522.77
2019-03-28T10:19:20.864Z,99525.36
2019-03-28T10:21:51.846Z,99523.71
2019-03-28T10:24:21.176Z,99518.08
2019-03-28T10:26:50.565Z,99520.93
2019-03-28T10:29:38.997Z,99513.63
2019-03-28T10:32:08.327Z,99510.42
2019-03-28T10:34:37.672Z,99514.16
2019-03-28T10:37:07.002Z,99504.05
2019-03-28T10:39:36.334Z,99509.91
2019-03-28T10:42:05.753Z,99503.95
2019-03-28T10:44:35.467Z,99508.57
2019-03-28T10:49:45.692Z,99502.43
2019-03-28T10:55:35.722Z,99496.50
2019-03-28T10:58:17.598Z,99499.36
2019-03-28T11:00:41.753Z,99504.70
2019-03-28T11:03:11.097Z,99493.05
2019-03-28T11:05:42.080Z,99495.50
2019-03-28T11:08:13.062Z,99499.86
2019-03-28T11:10:42.410Z,99492.48
2019-03-28T11:13:11.746Z,99495.31
2019-03-28T11:15:42.719Z,99481.28
2019-03-28T11:18:13.802Z,99485.91
2019-03-28T11:20:44.840Z,99472.80
2019-03-28T11:23:33.516Z,99480.66
2019-03-28T11:26:02.853Z,99480.66
2019-03-28T11:28:32.214Z,99468.33
2019-03-28T11:31:01.529Z,99467.06
2019-03-28T11:33:30.867Z,99464.41
2019-03-28T11:36:00.209Z,99458.14
2019-03-28T11:38:29.544Z,99455.62
2019-03-28T11:40:58.866Z,99443.80
2019-03-28T11:43:28.263Z,99455.19
2019-03-28T11:45:57.597Z,99450.02
2019-03-28T11:48:28.581Z,99455.88
2019-03-28T11:50:57.914Z,99454.95
2019-03-28T11:53:28.879Z,99460.31
2019-03-28T11:55:58.216Z,99472.31
2019-03-28T11:58:27.543Z,99460.34
2019-03-28T12:00:56.875Z,99460.55
2019-03-28T12:03:26.223Z,99460.69
2019-03-28T12:05:55.791Z,99466.22
2019-03-28T12:08:25.141Z,99446.93
2019-03-28T12:11:13.862Z,99435.19
2019-03-28T12:13:55.012Z,99445.33
2019-03-28T12:16:36.791Z,99434.84
2019-03-28T12:19:06.130Z,99434.84
2019-03-28T12:21:54.800Z,99413.33
2019-03-28T12:24:36.780Z,99433.09
2019-03-28T12:27:06.110Z,99433.09
2019-03-28T12:29:36.023Z,99432.81
2019-03-28T12:32:37.443Z,99434.20
2019-03-28T12:38:27.245Z,99421.70
2019-03-28T12:40:56.618Z,99430.95
2019-03-28T12:43:25.956Z,99412.39
2019-03-28T12:45:55.291Z,99412.31
2019-03-28T12:48:24.621Z,99422.80
2019-03-28T12:50:58.973Z,99411.11
2019-03-28T12:53:30.812Z,99430.76
2019-03-28T12:56:00.143Z,99425.89
2019-03-28T12:58:29.479Z,99424.50
2019-03-28T13:01:10.430Z,99422.47
2019-03-28T13:03:45.784Z,99422.47
2019-03-28T13:06:30.323Z,99425.47
2019-03-28T13:08:59.651Z,99423.47
2019-03-28T13:11:28.980Z,99417.09
2019-03-28T13:13:58.311Z,99421.42
2019-03-28T13:16:40.302Z,99419.64
2019-03-28T13:19:09.881Z,99414.12
2019-03-28T13:21:58.626Z,99402.27
2019-03-28T13:24:28.140Z,99414.89
2019-03-28T13:26:57.462Z,99415.98
2019-03-28T13:29:26.790Z,99410.96
2019-03-28T13:32:15.466Z,99402.57
2019-03-28T13:34:45.110Z,99404.42
2019-03-28T13:37:14.452Z,99406.13
2019-03-28T13:39:43.773Z,99401.44
2019-03-28T13:42:13.115Z,99379.64
2019-03-28T13:44:42.443Z,99399.40
2019-03-28T13:47:11.779Z,99402.12
2019-03-28T13:49:41.119Z,99395.38
2019-03-28T13:52:22.209Z,99382.22
2019-03-28T13:54:53.037Z,99382.22
2019-03-28T13:57:28.267Z,99396.23
2019-03-28T13:59:57.607Z,99392.88
2019-03-28T14:02:26.939Z,99395.32
2019-03-28T14:04:56.281Z,99389.29
2019-03-28T14:07:45.027Z,99391.15
2019-03-28T14:10:25.595Z,99388.94
2019-03-28T14:13:14.275Z,99372.42
2019-03-28T14:15:43.622Z,99372.42
2019-03-28T14:18:13.255Z,99376.35
2019-03-28T14:20:42.587Z,99389.64
2019-03-28T14:23:23.678Z,99386.19
2019-03-28T14:25:54.030Z,99386.19
2019-03-28T14:28:23.363Z,99386.38
2019-03-28T14:30:52.708Z,99381.56
2019-03-28T14:33:22.039Z,99381.56
2019-03-28T14:35:51.372Z,99380.14
2019-03-28T14:38:20.973Z,99381.54
2019-03-28T14:40:50.308Z,99390.39
2019-03-28T14:43:19.629Z,99384.99
2019-03-28T14:46:01.437Z,99389.20
2019-03-28T14:48:30.799Z,99390.41
2019-03-28T14:51:00.119Z,99390.47
2019-03-28T14:53:42.035Z,99376.67
2019-03-28T15:02:07.830Z,99389.91
2019-03-28T15:04:43.491Z,99372.38
2019-03-28T15:10:39.395Z,99385.88
2019-03-28T15:13:21.268Z,99374.36
2019-03-28T15:15:51.023Z,99374.36
2019-03-28T15:18:39.699Z,99391.83
2019-03-28T15:21:09.051Z,99391.83
2019-03-28T15:23:57.720Z,99374.77
2019-03-28T15:26:39.621Z,99376.41
2019-03-28T15:29:20.962Z,99376.41
2019-03-28T15:31:50.306Z,99385.81
2019-03-28T15:34:19.637Z,99388.86
2019-03-28T15:36:50.615Z,99388.86
2019-03-28T15:39:19.949Z,99382.10
2019-03-28T15:41:49.279Z,99380.30
2019-03-28T15:44:18.619Z,99382.61
2019-03-28T15:46:47.953Z,99382.61
2019-03-28T15:49:17.290Z,99380.35
2019-03-28T15:52:05.954Z,99381.13
2019-03-28T15:54:47.828Z,99362.47
2019-03-28T15:57:28.896Z,99378.16
2019-03-28T15:59:58.238Z,99378.16
2019-03-28T16:02:27.568Z,99374.19
2019-03-28T16:05:08.678Z,99359.44
2019-03-28T16:07:38.271Z,99359.44
2019-03-28T16:10:20.229Z,99371.22
2019-03-28T16:12:49.550Z,99371.22
2019-03-28T16:15:18.879Z,99372.05
2019-03-28T16:17:59.950Z,99355.84
2019-03-28T16:20:29.284Z,99355.84
2019-03-28T16:22:58.623Z,99375.53
2019-03-28T16:25:28.366Z,99373.00
2019-03-28T16:27:57.695Z,99373.73
2019-03-28T16:30:39.470Z,99369.09
2019-03-28T16:33:20.602Z,99371.44
2019-03-28T16:35:49.925Z,99371.44
2019-03-28T16:38:19.649Z,99383.44
2019-03-28T16:41:09.630Z,99372.73
2019-03-28T16:43:38.965Z,99379.44
2019-03-28T16:46:20.059Z,99376.78
2019-03-28T16:49:01.214Z,99378.05
2019-03-28T16:51:30.533Z,99378.05
2019-03-28T16:53:59.852Z,99377.64
2019-03-28T16:56:29.255Z,99376.97
2019-03-28T16:58:58.590Z,99384.31
2019-03-28T17:01:28.196Z,99381.33
2019-03-28T17:03:57.514Z,99383.73
2019-03-28T17:06:46.016Z,99381.86
2019-03-28T17:12:53.149Z,99388.41
2019-03-28T17:15:25.736Z,99381.96
2019-03-28T17:18:12.984Z,99390.74
2019-03-28T17:20:42.464Z,99393.20
2019-03-28T17:23:11.858Z,99382.94
2019-03-28T17:25:41.193Z,99388.02
2019-03-28T17:28:10.524Z,99385.89
2019-03-28T17:30:39.864Z,99391.23
2019-03-28T17:33:09.193Z,99389.67
2019-03-28T17:35:38.537Z,99383.48
2019-03-28T17:38:07.867Z,99389.46
2019-03-28T17:40:39.020Z,99384.67
2019-03-28T17:43:08.420Z,99387.86
2019-03-28T17:45:37.747Z,99393.17
2019-03-28T17:48:08.723Z,99393.80
2019-03-28T17:50:38.051Z,99399.13
2019-03-28T17:56:09.534Z,99402.12
2019-03-28T17:58:59.843Z,99400.11
2019-03-28T18:01:29.215Z,99402.89
2019-03-28T18:03:58.624Z,99401.67
2019-03-28T18:06:27.958Z,99400.11
2019-03-28T18:08:58.925Z,99403.34
2019-03-28T18:11:33.889Z,99405.45
2019-03-28T18:17:06.692Z,99409.23
2019-03-28T18:19:36.026Z,99416.42
2019-03-28T18:22:05.368Z,99416.05
2019-03-28T18:24:34.815Z,99417.16
2019-03-28T18:27:04.159Z,99419.27
2019-03-28T18:29:35.957Z,99428.53
2019-03-28T18:32:10.113Z,99429.31
2019-03-28T18:34:39.487Z,99431.98
2019-03-28T18:37:08.866Z,99435.27
2019-03-28T18:39:38.286Z,99435.27
2019-03-28T18:42:07.661Z,99445.71
2019-03-28T18:44:37.046Z,99446.88
2019-03-28T18:47:06.748Z,99445.46
2019-03-28T18:49:36.149Z,99449.71
2019-03-28T18:52:07.403Z,99449.50
2019-03-28T18:54:42.013Z,99448.40
2019-03-28T18:57:11.462Z,99452.56
2019-03-28T18:59:41.159Z,99453.48
2019-03-28T19:02:10.577Z,99451.48
2019-03-28T19:04:40.019Z,99460.98
2019-03-28T19:07:10.020Z,99449.95
2019-03-28T19:09:46.236Z,99453.08
2019-03-28T19:12:15.798Z,99452.47
2019-03-28T19:18:27.446Z,99455.46
2019-03-28T19:20:57.057Z,99459.92
2019-03-28T19:23:27.056Z,99466.00
2019-03-28T19:25:58.209Z,99464.97
2019-03-28T19:28:29.480Z,99465.50
2019-03-28T19:31:18.921Z,99463.78
2019-03-28T19:33:48.818Z,99460.70
2019-03-28T19:36:18.450Z,99463.52
2019-03-28T19:39:27.910Z,99460.39
2019-03-28T19:44:57.978Z,99452.95
2019-03-28T19:47:28.690Z,99454.02
2019-03-28T19:50:48.126Z,99461.23
2019-03-28T19:53:17.947Z,99462.93
2019-03-28T19:56:08.051Z,99463.21
2019-03-28T19:58:37.603Z,99466.21
2019-03-28T20:01:07.247Z,99467.61
2019-03-28T20:03:36.821Z,99461.25
2019-03-28T20:12:09.830Z,99461.17
2019-03-28T20:14:39.417Z,99462.16
2019-03-28T20:17:09.047Z,99461.02
2019-03-28T20:19:38.625Z,99460.78
2019-03-28T20:22:08.180Z,99456.94
2019-03-28T20:24:43.563Z,99465.75
2019-03-28T20:27:13.477Z,99458.30
2019-03-28T20:29:55.387Z,99459.69
2019-03-28T20:32:24.953Z,99453.92
2019-03-28T20:34:54.556Z,99454.85
2019-03-28T20:37:44.845Z,99453.16
2019-03-28T20:43:16.632Z,99451.09
2019-03-28T20:45:46.172Z,99447.88
2019-03-28T20:48:16.943Z,99453.94
2019-03-28T20:50:52.014Z,99458.69
2019-03-28T20:53:21.515Z,99458.39
2019-03-28T20:55:51.774Z,99463.12
2019-03-28T20:58:28.727Z,99458.02
2019-03-28T21:04:00.307Z,99464.22
2019-03-28T21:06:49.395Z,99464.15
2019-03-28T21:09:19.171Z,99460.31
2019-03-28T21:11:49.092Z,99462.54
2019-03-28T21:14:38.950Z,99464.57
2019-03-28T21:17:13.775Z,99458.52
2019-03-28T21:19:43.299Z,99465.13
2019-03-28T21:22:12.774Z,99456.84
2019-03-28T21:24:42.225Z,99452.77
2019-03-28T21:27:11.959Z,99449.53
2019-03-28T21:29:48.695Z,99446.17
2019-03-28T21:32:18.885Z,99443.95
2019-03-28T21:34:56.428Z,99444.56
2019-03-28T21:37:31.005Z,99435.67
2019-03-28T21:40:01.315Z,99440.41
2019-03-28T21:42:50.467Z,99437.06
2019-03-28T21:45:19.867Z,99439.93
2019-03-28T21:47:49.201Z,99440.49
2019-03-28T21:50:18.539Z,99432.67
2019-03-28T21:52:47.867Z,99441.06
2019-03-28T21:55:17.277Z,99442.22
2019-03-28T21:58:05.708Z,99437.84
2019-03-28T22:00:35.064Z,99440.84
2019-03-28T22:03:04.401Z,99442.70
2019-03-28T22:05:33.732Z,99437.66
2019-03-28T22:08:03.070Z,99440.23
2019-03-28T22:10:32.674Z,99440.25
2019-03-28T22:13:02.013Z,99437.95
2019-03-28T22:15:50.435Z,99429.13
2019-03-28T22:18:19.782Z,99426.55
2019-03-28T22:21:08.447Z,99434.12
2019-03-28T22:23:37.784Z,99428.84
2019-03-28T22:26:07.110Z,99428.25
2019-03-28T22:28:38.111Z,99422.53
2019-03-28T22:31:46.138Z,99419.19
2019-03-28T22:34:15.856Z,99421.95
2019-03-28T22:36:56.444Z,99416.36
2019-03-28T22:39:21.355Z,99414.21
2019-03-28T22:41:50.682Z,99410.96
2019-03-28T22:44:20.018Z,99410.06
2019-03-28T22:46:49.350Z,99406.78
2019-03-28T22:49:19.015Z,99410.06
2019-03-28T22:51:48.351Z,99410.41
2019-03-28T22:54:17.680Z,99412.64
2019-03-28T22:56:53.287Z,99407.59
2019-03-28T22:59:22.620Z,99404.24
2019-03-28T23:01:51.955Z,99406.52
2019-03-28T23:04:21.298Z,99404.36
2019-03-28T23:06:50.623Z,99401.26
2019-03-28T23:09:19.965Z,99400.41
2019-03-28T23:11:49.291Z,99405.77
2019-03-28T23:14:18.943Z,99404.14
2019-03-28T23:17:08.746Z,99405.33
2019-03-28T23:19:38.088Z,99397.80
2019-03-28T23:22:27.027Z,99396.53
2019-03-28T23:24:56.632Z,99407.08
2019-03-28T23:27:26.878Z,99401.85
2019-03-28T23:30:02.843Z,99397.47
2019-03-28T23:32:38.919Z,99398.26
2019-03-28T23:35:14.813Z,99393.41
2019-03-28T23:37:51.295Z,99392.66
2019-03-28T23:40:20.904Z,99391.90
2019-03-28T23:42:50.235Z,99390.32
2019-03-28T23:45:27.233Z,99388.94
2019-03-28T23:47:56.563Z,99389.83
2019-03-28T23:50:25.901Z,99391.25
2019-03-28T23:52:55.240Z,99392.44
2019-03-28T23:55:36.955Z,99398.81
2019-03-28T23:58:06.317Z,99393.05
